Airport ID:KGOO
Update Time (UTC):03/03/2021 07:40
Wind Speed (Knots):0
Wind Direction (Magnetic):310
Temperature (°C):10
Dew Point (°C):-7
Humidity (%):30
Altimeter (inHg):29.82
Density Altitude (Feet):
Visibility:10+
Clouds (Hundreds of feet):\\\\
Present Weather:
METAR:METAR KGOO 030735Z AUTO 00000KT 10SM 10/M07 A2982 RMK A01

The data displayed is for advisory purposes only and is not to be used for flight planning or operations.